createdAt,value
2023-01-02T00:00:41.373Z,3.60
2023-01-02T00:01:41.365Z,4.20
2023-01-02T00:02:41.372Z,4.30
2023-01-02T00:03:41.387Z,4.40
2023-01-02T00:04:41.300Z,3.90
2023-01-02T00:05:41.284Z,4.80
2023-01-02T00:06:41.291Z,4.50
2023-01-02T00:07:41.272Z,4.10
2023-01-02T00:08:41.278Z,4.40
2023-01-02T00:09:41.242Z,3.70
2023-01-02T00:10:41.255Z,3.60
2023-01-02T00:11:41.226Z,4.00
2023-01-02T00:12:41.219Z,3.70
2023-01-02T00:13:41.226Z,4.10
2023-01-02T00:14:41.186Z,4.10
2023-01-02T00:15:41.185Z,3.70
2023-01-02T00:16:41.174Z,3.40
2023-01-02T00:17:41.172Z,3.70
2023-01-02T00:18:41.162Z,3.90
2023-01-02T00:19:41.131Z,3.60
2023-01-02T00:20:41.135Z,4.10
2023-01-02T00:21:41.112Z,3.50
2023-01-02T00:22:41.111Z,3.60
2023-01-02T00:23:41.109Z,3.90
2023-01-02T00:24:41.093Z,3.20
2023-01-02T00:25:41.073Z,3.00
2023-01-02T00:26:41.063Z,3.00
2023-01-02T00:27:41.062Z,2.70
2023-01-02T00:28:41.070Z,2.90
2023-01-02T00:29:41.028Z,2.60
2023-01-02T00:30:41.043Z,2.80
2023-01-02T00:31:41.075Z,3.00
2023-01-02T00:32:41.019Z,2.80
2023-01-02T00:33:41.009Z,2.70
2023-01-02T00:34:40.975Z,2.50
2023-01-02T00:35:40.993Z,3.10
2023-01-02T00:36:40.966Z,2.60
2023-01-02T00:37:40.975Z,2.40
2023-01-02T00:38:40.938Z,2.40
2023-01-02T00:39:40.948Z,2.30
2023-01-02T00:40:40.903Z,2.70
2023-01-02T00:41:40.922Z,2.50
2023-01-02T00:42:41.023Z,2.50
2023-01-02T00:43:40.889Z,3.10
2023-01-02T00:44:40.861Z,2.80
2023-01-02T00:45:40.882Z,2.60
2023-01-02T00:46:40.873Z,2.80
2023-01-02T00:47:40.847Z,2.80
2023-01-02T00:48:40.886Z,2.70
2023-01-02T00:49:40.813Z,2.40
2023-01-02T00:50:40.821Z,2.60
2023-01-02T00:51:40.791Z,2.60
2023-01-02T00:52:40.780Z,2.70
2023-01-02T00:53:40.780Z,2.30
2023-01-02T00:54:40.762Z,2.60
2023-01-02T00:55:40.766Z,2.70
2023-01-02T00:56:40.770Z,2.50
2023-01-02T00:57:40.731Z,3.30
2023-01-02T00:58:40.721Z,2.50
2023-01-02T00:59:40.709Z,2.60
2023-01-02T01:00:40.772Z,2.70
2023-01-02T01:01:40.922Z,2.60
2023-01-02T01:02:40.801Z,2.70
2023-01-02T01:03:40.683Z,2.70
2023-01-02T01:04:40.661Z,2.80
2023-01-02T01:05:40.679Z,2.50
2023-01-02T01:06:40.628Z,2.50
2023-01-02T01:07:40.634Z,2.50
2023-01-02T01:08:40.605Z,2.80
2023-01-02T01:09:40.594Z,2.70
2023-01-02T01:10:40.613Z,2.70
2023-01-02T01:11:40.601Z,2.80
2023-01-02T01:12:40.574Z,2.70
2023-01-02T01:13:40.574Z,2.80
2023-01-02T01:14:40.541Z,2.70
2023-01-02T01:15:40.571Z,2.40
2023-01-02T01:16:40.550Z,2.80
2023-01-02T01:17:40.515Z,2.50
2023-01-02T01:18:40.511Z,2.90
2023-01-02T01:19:40.496Z,3.10
2023-01-02T01:20:40.493Z,2.90
2023-01-02T01:21:40.499Z,3.20
2023-01-02T01:22:40.460Z,2.50
2023-01-02T01:23:40.451Z,3.10
2023-01-02T01:24:40.449Z,3.10
2023-01-02T01:25:40.424Z,3.00
2023-01-02T01:26:40.431Z,3.00
2023-01-02T01:27:40.438Z,3.10
2023-01-02T01:28:40.404Z,2.70
2023-01-02T01:29:40.384Z,3.40
2023-01-02T01:30:40.376Z,2.90
2023-01-02T01:31:40.378Z,2.60
2023-01-02T01:32:40.383Z,2.90
2023-01-02T01:33:40.345Z,2.70
2023-01-02T01:34:40.327Z,3.30
2023-01-02T01:35:40.337Z,3.00
2023-01-02T01:36:40.311Z,2.90
2023-01-02T01:37:40.319Z,3.00
2023-01-02T01:38:40.315Z,3.20
2023-01-02T01:39:40.279Z,2.90
2023-01-02T01:40:40.270Z,3.20
2023-01-02T01:41:40.265Z,3.10
2023-01-02T01:42:40.250Z,2.90
2023-01-02T01:43:40.255Z,2.70
2023-01-02T01:44:40.221Z,2.90
2023-01-02T01:45:40.245Z,2.80
2023-01-02T01:46:40.206Z,2.70
2023-01-02T01:47:40.190Z,2.70
2023-01-02T01:48:40.201Z,2.90
2023-01-02T01:49:40.188Z,2.80
2023-01-02T01:50:40.168Z,3.20
2023-01-02T01:51:40.153Z,2.70
2023-01-02T01:52:40.136Z,2.60
2023-01-02T01:53:40.120Z,3.10
2023-01-02T01:54:40.142Z,2.70
2023-01-02T01:55:40.101Z,2.90
2023-01-02T01:56:40.103Z,2.70
2023-01-02T01:57:40.075Z,2.70
2023-01-02T01:58:40.063Z,2.70
2023-01-02T01:59:40.072Z,2.80
2023-01-02T02:00:40.109Z,2.80
2023-01-02T02:01:40.117Z,3.20
2023-01-02T02:02:40.136Z,2.70
2023-01-02T02:03:40.013Z,2.90
2023-01-02T02:04:40.021Z,2.50
2023-01-02T02:05:39.992Z,2.80
2023-01-02T02:06:39.989Z,2.40
2023-01-02T02:07:39.965Z,2.80
2023-01-02T02:08:39.975Z,2.50
2023-01-02T02:09:39.968Z,2.40
2023-01-02T02:10:39.936Z,2.40
2023-01-02T02:11:39.948Z,2.70
2023-01-02T02:12:39.920Z,3.00
2023-01-02T02:13:39.913Z,2.70
2023-01-02T02:14:39.902Z,2.80
2023-01-02T02:15:39.920Z,2.60
2023-01-02T02:16:39.898Z,2.40
2023-01-02T02:17:39.864Z,2.50
2023-01-02T02:18:39.857Z,2.50
2023-01-02T02:19:39.853Z,2.50
2023-01-02T02:20:39.862Z,2.60
2023-01-02T02:21:39.821Z,2.30
2023-01-02T02:22:39.814Z,2.30
2023-01-02T02:23:39.797Z,2.50
2023-01-02T02:24:39.789Z,2.60
2023-01-02T02:25:39.795Z,2.20
2023-01-02T02:26:39.792Z,2.30
2023-01-02T02:27:39.752Z,2.50
2023-01-02T02:28:39.750Z,2.40
2023-01-02T02:29:39.731Z,2.30
2023-01-02T02:30:39.722Z,2.40
2023-01-02T02:31:39.762Z,2.40
2023-01-02T02:32:39.718Z,2.40
2023-01-02T02:33:39.712Z,2.40
2023-01-02T02:34:39.707Z,2.20
2023-01-02T02:35:39.672Z,2.30
2023-01-02T02:36:39.657Z,2.10
2023-01-02T02:37:39.665Z,2.60
2023-01-02T02:38:39.637Z,2.10
2023-01-02T02:39:39.623Z,2.20
2023-01-02T02:40:39.627Z,2.40
2023-01-02T02:41:39.611Z,2.70
2023-01-02T02:42:39.610Z,2.30
2023-01-02T02:43:39.582Z,2.40
2023-01-02T02:44:39.572Z,2.20
2023-01-02T02:45:39.570Z,2.40
2023-01-02T02:46:39.567Z,2.70
2023-01-02T02:47:39.543Z,2.30
2023-01-02T02:48:46.193Z,2.40
2023-01-02T02:49:40.525Z,2.60
2023-01-02T02:50:39.513Z,2.40
2023-01-02T02:51:39.524Z,2.30
2023-01-02T02:52:39.486Z,2.10
2023-01-02T02:53:39.476Z,2.10
2023-01-02T02:54:39.470Z,2.30
2023-01-02T02:55:39.450Z,2.40
2023-01-02T02:56:39.474Z,2.20
2023-01-02T02:57:39.453Z,2.00
2023-01-02T02:58:39.423Z,2.20
2023-01-02T02:59:39.427Z,2.40
2023-01-02T03:00:39.418Z,2.40
2023-01-02T03:01:39.607Z,2.20
2023-01-02T03:02:39.475Z,2.00
2023-01-02T03:03:39.377Z,2.40
2023-01-02T03:04:39.380Z,2.40
2023-01-02T03:05:39.363Z,2.30
2023-01-02T03:06:39.326Z,2.40
2023-01-02T03:07:39.331Z,2.30
2023-01-02T03:08:39.328Z,2.20
2023-01-02T03:09:39.317Z,2.50
2023-01-02T03:10:39.302Z,2.00
2023-01-02T03:11:39.292Z,2.00
2023-01-02T03:12:39.270Z,2.70
2023-01-02T03:13:41.708Z,2.00
2023-01-02T03:14:39.241Z,2.40
2023-01-02T03:15:39.253Z,2.60
2023-01-02T03:16:39.286Z,2.00
2023-01-02T03:17:39.217Z,2.50
2023-01-02T03:18:39.226Z,2.40
2023-01-02T03:19:39.189Z,2.60
2023-01-02T03:20:39.201Z,2.60
2023-01-02T03:21:39.168Z,2.30
2023-01-02T03:22:39.162Z,2.20
2023-01-02T03:23:39.165Z,2.40
2023-01-02T03:24:39.144Z,2.30
2023-01-02T03:25:39.155Z,2.20
2023-01-02T03:26:39.132Z,2.20
2023-01-02T03:27:39.126Z,2.30
2023-01-02T03:28:39.107Z,2.50
2023-01-02T03:29:39.106Z,2.40
2023-01-02T03:30:39.115Z,2.50
2023-01-02T03:31:39.070Z,2.40
2023-01-02T03:32:39.072Z,2.00
2023-01-02T03:33:39.037Z,2.30
2023-01-02T03:34:39.043Z,2.00
2023-01-02T03:35:39.025Z,2.20
2023-01-02T03:36:39.028Z,2.00
2023-01-02T03:37:38.998Z,2.40
2023-01-02T03:38:39.025Z,1.90
2023-01-02T03:39:38.973Z,2.10
2023-01-02T03:40:38.993Z,2.30
2023-01-02T03:41:38.969Z,2.10
2023-01-02T03:42:38.965Z,2.20
2023-01-02T03:43:38.941Z,2.00
2023-01-02T03:44:38.928Z,2.50
2023-01-02T03:45:38.918Z,2.20
2023-01-02T03:46:38.914Z,2.20
2023-01-02T03:47:38.887Z,2.00
2023-01-02T03:48:38.874Z,2.20
2023-01-02T03:49:38.888Z,2.00
2023-01-02T03:50:38.857Z,2.40
2023-01-02T03:51:38.849Z,2.00
2023-01-02T03:52:38.851Z,2.20
2023-01-02T03:53:38.823Z,2.10
2023-01-02T03:54:38.833Z,2.20
2023-01-02T03:55:38.818Z,2.30
2023-01-02T03:56:38.787Z,2.20
2023-01-02T03:57:38.787Z,2.40
2023-01-02T03:58:38.788Z,2.10
2023-01-02T03:59:38.791Z,2.30
2023-01-02T04:00:38.767Z,2.20
2023-01-02T04:01:38.900Z,2.00
2023-01-02T04:02:38.849Z,2.60
2023-01-02T04:03:38.724Z,2.50
2023-01-02T04:04:38.715Z,1.90
2023-01-02T04:05:38.695Z,2.50
2023-01-02T04:06:38.692Z,2.10
2023-01-02T04:07:38.696Z,2.20
2023-01-02T04:08:38.756Z,2.30
2023-01-02T04:09:38.672Z,2.30
2023-01-02T04:10:38.646Z,2.80
2023-01-02T04:11:38.628Z,2.30
2023-01-02T04:12:38.630Z,2.40
2023-01-02T04:13:38.605Z,2.80
2023-01-02T04:14:38.623Z,2.80
2023-01-02T04:15:38.656Z,2.70
2023-01-02T04:16:38.573Z,2.70
2023-01-02T04:17:38.571Z,3.00
2023-01-02T04:18:44.617Z,2.60
2023-01-02T04:19:39.624Z,2.80
2023-01-02T04:20:38.547Z,3.00
2023-01-02T04:21:38.527Z,3.20
2023-01-02T04:22:38.524Z,2.90
2023-01-02T04:23:38.502Z,3.00
2023-01-02T04:24:38.522Z,2.90
2023-01-02T04:25:38.489Z,2.60
2023-01-02T04:26:38.475Z,2.50
2023-01-02T04:27:38.485Z,2.30
2023-01-02T04:28:38.444Z,2.40
2023-01-02T04:29:38.435Z,2.10
2023-01-02T04:30:38.464Z,2.20
2023-01-02T04:31:38.421Z,2.00
2023-01-02T04:32:38.410Z,1.90
2023-01-02T04:33:38.394Z,2.30
2023-01-02T04:34:38.400Z,2.20
2023-01-02T04:35:38.373Z,2.00
2023-01-02T04:36:38.371Z,2.50
2023-01-02T04:37:38.363Z,2.00
2023-01-02T04:38:38.363Z,2.00
2023-01-02T04:39:38.368Z,2.00
2023-01-02T04:40:38.325Z,2.10
2023-01-02T04:41:38.319Z,2.20
2023-01-02T04:42:38.288Z,1.90
2023-01-02T04:43:38.286Z,2.00
2023-01-02T04:44:38.300Z,2.10
2023-01-02T04:45:38.286Z,2.00
2023-01-02T04:46:38.323Z,2.50
2023-01-02T04:47:38.239Z,2.00
2023-01-02T04:48:38.242Z,1.70
2023-01-02T04:49:38.244Z,1.90
2023-01-02T04:50:38.239Z,1.90
2023-01-02T04:51:38.204Z,1.80
2023-01-02T04:52:38.198Z,2.10
2023-01-02T04:53:38.178Z,1.80
2023-01-02T04:54:38.204Z,2.10
2023-01-02T04:55:38.189Z,2.10
2023-01-02T04:56:38.168Z,2.10
2023-01-02T04:57:38.203Z,1.80
2023-01-02T04:58:38.142Z,1.80
2023-01-02T04:59:38.158Z,2.40
2023-01-02T05:00:38.109Z,2.10
2023-01-02T05:01:38.189Z,2.10
2023-01-02T05:02:38.202Z,2.10
2023-01-02T05:03:38.114Z,2.20
2023-01-02T05:04:38.074Z,2.00
2023-01-02T05:05:38.055Z,2.10
2023-01-02T05:06:38.042Z,2.30
2023-01-02T05:07:38.031Z,2.40
2023-01-02T05:08:38.072Z,2.20
2023-01-02T05:09:38.022Z,2.10
2023-01-02T05:10:37.999Z,2.10
2023-01-02T05:11:37.986Z,2.10
2023-01-02T05:12:37.987Z,1.70
2023-01-02T05:13:37.961Z,1.60
2023-01-02T05:14:37.968Z,2.10
2023-01-02T05:15:38.006Z,2.00
2023-01-02T05:16:37.955Z,1.80
2023-01-02T05:17:37.934Z,2.20
2023-01-02T05:18:37.944Z,2.20
2023-01-02T05:19:37.936Z,1.90
2023-01-02T05:20:37.917Z,2.00
2023-01-02T05:21:37.906Z,2.00
2023-01-02T05:22:37.866Z,1.80
2023-01-02T05:23:37.878Z,2.00
2023-01-02T05:24:37.876Z,2.10
2023-01-02T05:25:37.853Z,1.80
2023-01-02T05:26:37.865Z,1.90
2023-01-02T05:27:37.813Z,2.00
2023-01-02T05:28:38.836Z,1.80
2023-01-02T05:29:37.788Z,2.00
2023-01-02T05:30:37.791Z,2.00
2023-01-02T05:31:37.848Z,1.90
2023-01-02T05:32:37.756Z,1.90
2023-01-02T05:33:37.750Z,2.00
2023-01-02T05:34:37.755Z,2.00
2023-01-02T05:35:37.774Z,1.90
2023-01-02T05:36:37.723Z,2.10
2023-01-02T05:37:37.712Z,2.10
2023-01-02T05:38:37.706Z,2.00
2023-01-02T05:39:37.685Z,2.20
2023-01-02T05:40:37.736Z,1.90
2023-01-02T05:41:37.674Z,1.70
2023-01-02T05:42:37.667Z,2.10
2023-01-02T05:43:37.653Z,2.10
2023-01-02T05:44:37.627Z,1.80
2023-01-02T05:45:37.639Z,2.00
2023-01-02T05:46:37.648Z,1.80
2023-01-02T05:47:37.601Z,1.70
2023-01-02T05:48:37.594Z,2.00
2023-01-02T05:49:37.576Z,2.20
2023-01-02T05:50:37.580Z,1.60
2023-01-02T05:51:37.589Z,2.10
2023-01-02T05:52:43.291Z,2.00
2023-01-02T05:53:38.526Z,2.00
2023-01-02T05:54:37.516Z,1.90
2023-01-02T05:55:37.515Z,1.90
2023-01-02T05:56:37.500Z,2.10
2023-01-02T05:57:37.508Z,1.80
2023-01-02T05:58:37.491Z,1.90
2023-01-02T05:59:37.477Z,1.50
2023-01-02T06:00:37.470Z,1.90
2023-01-02T06:01:37.603Z,1.70
2023-01-02T06:02:37.600Z,2.00
2023-01-02T06:03:37.467Z,1.80
2023-01-02T06:04:37.406Z,1.70
2023-01-02T06:05:37.397Z,2.00
2023-01-02T06:06:37.403Z,1.70
2023-01-02T06:07:37.375Z,2.00
2023-01-02T06:08:37.371Z,2.10
2023-01-02T06:09:37.367Z,2.20
2023-01-02T06:10:37.350Z,1.70
2023-01-02T06:11:37.351Z,2.10
2023-01-02T06:12:37.335Z,2.10
2023-01-02T06:13:37.307Z,1.90
2023-01-02T06:14:37.311Z,2.00
2023-01-02T06:15:37.297Z,2.20
2023-01-02T06:16:37.336Z,2.00
2023-01-02T06:17:37.277Z,2.00
2023-01-02T06:18:37.264Z,2.00
2023-01-02T06:19:37.284Z,1.90
2023-01-02T06:20:37.259Z,2.00
2023-01-02T06:21:37.235Z,1.80
2023-01-02T06:22:37.235Z,1.70
2023-01-02T06:23:37.208Z,2.20
2023-01-02T06:24:37.196Z,1.90
2023-01-02T06:25:37.199Z,1.90
2023-01-02T06:26:37.205Z,1.70
2023-01-02T06:27:37.197Z,2.10
2023-01-02T06:28:37.156Z,2.00
2023-01-02T06:29:37.140Z,2.00
2023-01-02T06:30:37.128Z,1.90
2023-01-02T06:31:39.856Z,2.10
2023-01-02T06:32:37.108Z,1.80
2023-01-02T06:33:37.118Z,1.90
2023-01-02T06:34:37.580Z,2.00
2023-01-02T06:35:37.090Z,1.90
2023-01-02T06:36:37.070Z,1.90
2023-01-02T06:37:37.077Z,2.30
2023-01-02T06:38:37.048Z,1.90
2023-01-02T06:39:37.395Z,2.20
2023-01-02T06:40:37.024Z,2.20
2023-01-02T06:41:37.069Z,1.90
2023-01-02T06:42:37.020Z,1.90
2023-01-02T06:43:37.046Z,2.10
2023-01-02T06:44:36.990Z,2.20
2023-01-02T06:45:37.057Z,2.00
2023-01-02T06:46:36.959Z,2.50
2023-01-02T06:47:36.968Z,1.80
2023-01-02T06:48:36.935Z,2.00
2023-01-02T06:49:36.919Z,1.90
2023-01-02T06:50:36.934Z,2.20
2023-01-02T06:51:36.927Z,2.10
2023-01-02T06:52:36.901Z,1.90
2023-01-02T06:53:36.901Z,2.10
2023-01-02T06:54:36.871Z,2.10
2023-01-02T06:55:39.578Z,1.90
2023-01-02T06:56:36.865Z,1.80
2023-01-02T06:57:36.836Z,1.80
2023-01-02T06:58:36.854Z,2.30
2023-01-02T06:59:36.822Z,2.10
2023-01-02T07:00:36.867Z,2.30
2023-01-02T07:01:36.933Z,2.40
2023-01-02T07:02:36.868Z,2.60
2023-01-02T07:03:36.775Z,2.50
2023-01-02T07:04:36.790Z,2.30
2023-01-02T07:05:36.766Z,2.00
2023-01-02T07:06:36.790Z,1.40
2023-01-02T07:07:36.741Z,1.90
2023-01-02T07:08:36.721Z,2.20
2023-01-02T07:09:36.734Z,1.70
2023-01-02T07:10:36.706Z,1.80
2023-01-02T07:11:36.685Z,1.70
2023-01-02T07:12:36.695Z,1.60
2023-01-02T07:13:36.663Z,1.60
2023-01-02T07:14:36.654Z,1.80
2023-01-02T07:15:36.662Z,2.00
2023-01-02T07:16:36.698Z,1.80
2023-01-02T07:17:36.635Z,2.00
2023-01-02T07:18:36.658Z,1.80
2023-01-02T07:19:36.610Z,2.00
2023-01-02T07:20:36.594Z,1.80
2023-01-02T07:21:36.581Z,2.00
2023-01-02T07:22:36.585Z,2.00
2023-01-02T07:23:36.578Z,2.00
2023-01-02T07:24:36.559Z,1.90
2023-01-02T07:25:42.442Z,2.30
2023-01-02T07:26:37.539Z,1.60
2023-01-02T07:27:36.526Z,1.90
2023-01-02T07:28:36.544Z,1.70
2023-01-02T07:29:36.505Z,1.80
2023-01-02T07:30:36.482Z,2.10
2023-01-02T07:31:36.510Z,2.20
2023-01-02T07:32:36.497Z,1.60
2023-01-02T07:33:36.447Z,2.00
2023-01-02T07:34:36.461Z,1.60
2023-01-02T07:35:36.452Z,1.80
2023-01-02T07:36:36.435Z,1.90
2023-01-02T07:37:36.405Z,2.00
2023-01-02T07:38:36.455Z,1.70
2023-01-02T07:39:36.396Z,1.90
2023-01-02T07:40:36.378Z,1.60
2023-01-02T07:41:36.368Z,1.90
2023-01-02T07:42:36.362Z,1.80
2023-01-02T07:43:36.344Z,1.70
2023-01-02T07:44:36.351Z,1.80
2023-01-02T07:45:36.424Z,1.80
2023-01-02T07:46:36.370Z,2.20
2023-01-02T07:47:36.310Z,1.70
2023-01-02T07:48:36.281Z,1.50
2023-01-02T07:49:36.292Z,2.20
2023-01-02T07:50:36.266Z,1.90
2023-01-02T07:51:36.281Z,1.90
2023-01-02T07:52:36.287Z,1.70
2023-01-02T07:53:36.246Z,1.90
2023-01-02T07:54:36.246Z,1.70
2023-01-02T07:55:36.223Z,1.70
2023-01-02T07:56:36.224Z,2.30
2023-01-02T07:57:36.193Z,1.60
2023-01-02T07:58:36.242Z,1.70
2023-01-02T07:59:36.193Z,1.80
2023-01-02T08:00:36.174Z,2.10
2023-01-02T08:01:36.230Z,1.80
2023-01-02T08:02:36.203Z,1.80
2023-01-02T08:03:36.177Z,1.90
2023-01-02T08:04:36.219Z,1.80
2023-01-02T08:05:36.111Z,1.90
2023-01-02T08:06:36.121Z,2.20
2023-01-02T08:07:42.784Z,2.00
2023-01-02T08:08:37.090Z,1.80
2023-01-02T08:09:36.094Z,1.90
2023-01-02T08:10:36.083Z,1.70
2023-01-02T08:11:36.054Z,2.00
2023-01-02T08:12:36.033Z,1.80
2023-01-02T08:13:36.025Z,1.50
2023-01-02T08:14:36.035Z,2.00
2023-01-02T08:15:36.015Z,2.00
2023-01-02T08:16:36.052Z,1.90
2023-01-02T08:17:35.978Z,1.70
2023-01-02T08:18:36.010Z,2.10
2023-01-02T08:19:36.045Z,1.60
2023-01-02T08:20:35.982Z,2.00
2023-01-02T08:21:35.940Z,1.70
2023-01-02T08:22:35.933Z,1.70
2023-01-02T08:23:35.913Z,1.90
2023-01-02T08:24:35.927Z,1.40
2023-01-02T08:25:35.891Z,1.90
2023-01-02T08:26:35.891Z,1.80
2023-01-02T08:27:35.883Z,1.70
2023-01-02T08:28:35.864Z,1.60
2023-01-02T08:29:35.867Z,1.90
2023-01-02T08:30:35.923Z,1.80
2023-01-02T08:31:40.018Z,1.80
2023-01-02T08:32:36.818Z,1.70
2023-01-02T08:33:35.801Z,1.60
2023-01-02T08:34:35.812Z,1.90
2023-01-02T08:35:38.748Z,1.90
2023-01-02T08:36:35.784Z,2.00
2023-01-02T08:37:35.767Z,2.10
2023-01-02T08:38:35.755Z,2.00
2023-01-02T08:39:35.764Z,1.90
2023-01-02T08:40:35.734Z,2.00
2023-01-02T08:41:35.722Z,2.00
2023-01-02T08:42:35.718Z,2.30
2023-01-02T08:43:35.706Z,1.70
2023-01-02T08:44:35.714Z,2.00
2023-01-02T08:45:35.711Z,2.10
2023-01-02T08:46:42.396Z,2.00
2023-01-02T08:47:36.662Z,1.70
2023-01-02T08:48:35.651Z,2.00
2023-01-02T08:49:35.641Z,1.80
2023-01-02T08:50:35.642Z,2.00
2023-01-02T08:51:35.614Z,1.70
2023-01-02T08:52:35.614Z,2.00
2023-01-02T08:53:35.602Z,1.80
2023-01-02T08:54:35.609Z,1.60
2023-01-02T08:55:35.593Z,1.80
2023-01-02T08:56:35.563Z,2.00
2023-01-02T08:57:35.549Z,1.70
2023-01-02T08:58:35.580Z,1.70
2023-01-02T08:59:35.560Z,1.60
2023-01-02T09:00:35.595Z,2.10
2023-01-02T09:01:35.754Z,1.70
2023-01-02T09:02:35.766Z,1.90
2023-01-02T09:03:35.528Z,2.00
2023-01-02T09:04:35.488Z,2.00
2023-01-02T09:05:35.472Z,2.10
2023-01-02T09:06:35.479Z,1.70
2023-01-02T09:07:35.448Z,2.20
2023-01-02T09:08:35.439Z,2.00
2023-01-02T09:09:35.414Z,1.80
2023-01-02T09:10:35.412Z,1.90
2023-01-02T09:11:35.418Z,1.80
2023-01-02T09:12:35.390Z,2.00
2023-01-02T09:13:35.382Z,2.10
2023-01-02T09:14:35.370Z,2.10
2023-01-02T09:15:35.438Z,1.60
2023-01-02T09:16:35.363Z,1.80
2023-01-02T09:17:35.345Z,2.50
2023-01-02T09:18:35.326Z,2.00
2023-01-02T09:19:35.321Z,1.80
2023-01-02T09:20:35.326Z,2.10
2023-01-02T09:21:35.290Z,2.10
2023-01-02T09:22:35.308Z,2.20
2023-01-02T09:23:35.287Z,2.30
2023-01-02T09:24:35.254Z,1.60
2023-01-02T09:25:35.301Z,1.50
2023-01-02T09:26:35.273Z,1.60
2023-01-02T09:27:35.247Z,1.80
2023-01-02T09:28:35.216Z,2.00
2023-01-02T09:29:35.213Z,1.90
2023-01-02T09:30:35.279Z,2.20
2023-01-02T09:31:35.265Z,1.70
2023-01-02T09:32:35.198Z,1.70
2023-01-02T09:33:35.218Z,1.70
2023-01-02T09:34:35.190Z,1.80
2023-01-02T09:35:35.187Z,2.00
2023-01-02T09:36:35.207Z,1.50
2023-01-02T09:37:35.196Z,1.90
2023-01-02T09:38:35.137Z,2.10
2023-01-02T09:39:35.098Z,1.80
2023-01-02T09:40:35.109Z,2.20
2023-01-02T09:41:35.104Z,2.50
2023-01-02T09:42:35.073Z,1.70
2023-01-02T09:43:35.054Z,2.00
2023-01-02T09:44:35.058Z,2.00
2023-01-02T09:45:35.051Z,1.80
2023-01-02T09:46:35.117Z,2.10
2023-01-02T09:47:35.028Z,2.30
2023-01-02T09:48:35.012Z,2.70
2023-01-02T09:49:34.997Z,2.60
2023-01-02T09:50:34.975Z,2.60
2023-01-02T09:51:34.995Z,2.30
2023-01-02T09:52:34.977Z,2.40
2023-01-02T09:53:34.953Z,2.00
2023-01-02T09:54:34.969Z,2.30
2023-01-02T09:55:34.949Z,1.70
2023-01-02T09:56:34.941Z,2.10
2023-01-02T09:57:35.089Z,1.80
2023-01-02T09:58:34.895Z,2.00
2023-01-02T09:59:34.906Z,1.60
2023-01-02T10:00:34.861Z,2.10
2023-01-02T10:01:34.907Z,2.10
2023-01-02T10:02:34.933Z,1.70
2023-01-02T10:03:34.958Z,2.10
2023-01-02T10:04:34.832Z,1.70
2023-01-02T10:05:34.836Z,1.80
2023-01-02T10:06:34.824Z,1.80
2023-01-02T10:07:34.850Z,1.90
2023-01-02T10:08:34.845Z,1.70
2023-01-02T10:09:34.792Z,1.70
2023-01-02T10:10:34.805Z,2.20
2023-01-02T10:11:34.773Z,1.70
2023-01-02T10:12:34.789Z,2.10
2023-01-02T10:14:16.671Z,1.80
2023-01-02T10:14:42.157Z,1.90
2023-01-02T10:15:35.740Z,2.00
2023-01-02T10:16:34.715Z,2.20
2023-01-02T10:17:34.740Z,2.10
2023-01-02T10:18:41.708Z,2.50
2023-01-02T10:19:34.682Z,2.50
2023-01-02T10:20:34.703Z,2.70
2023-01-02T10:21:34.648Z,2.70
2023-01-02T10:22:34.653Z,2.20
2023-01-02T10:23:34.657Z,2.40
2023-01-02T10:24:34.639Z,2.30
2023-01-02T10:25:34.608Z,1.90
2023-01-02T10:26:34.595Z,1.90
2023-01-02T10:27:34.590Z,2.10
2023-01-02T10:28:34.573Z,2.00
2023-01-02T10:29:34.577Z,2.20
2023-01-02T10:30:34.548Z,2.00
2023-01-02T10:31:34.579Z,2.20
2023-01-02T10:32:34.524Z,1.90
2023-01-02T10:33:34.536Z,2.00
2023-01-02T10:34:34.536Z,2.20
2023-01-02T10:35:34.527Z,1.70
2023-01-02T10:36:34.497Z,2.00
2023-01-02T10:37:34.502Z,1.90
2023-01-02T10:38:34.497Z,1.90
2023-01-02T10:39:34.501Z,2.10
2023-01-02T10:40:34.505Z,2.10
2023-01-02T10:41:34.498Z,2.30
2023-01-02T10:42:34.463Z,2.70
2023-01-02T10:43:34.443Z,2.00
2023-01-02T10:44:34.421Z,2.80
2023-01-02T10:45:34.447Z,2.20
2023-01-02T10:46:34.455Z,2.10
2023-01-02T10:47:34.399Z,2.00
2023-01-02T10:48:34.359Z,2.10
2023-01-02T10:49:34.367Z,2.10
2023-01-02T10:50:34.382Z,2.10
2023-01-02T10:51:34.336Z,2.30
2023-01-02T10:52:34.338Z,2.50
2023-01-02T10:53:35.058Z,2.00
2023-01-02T10:54:34.336Z,1.80
2023-01-02T10:55:34.305Z,2.20
2023-01-02T10:56:34.320Z,2.00
2023-01-02T10:57:34.267Z,2.10
2023-01-02T10:58:34.277Z,2.00
2023-01-02T10:59:34.255Z,1.90
2023-01-02T11:00:34.357Z,2.10
2023-01-02T11:01:34.374Z,1.80
2023-01-02T11:02:34.281Z,1.90
2023-01-02T11:03:34.194Z,2.30
2023-01-02T11:04:34.183Z,2.00
2023-01-02T11:05:34.187Z,2.50
2023-01-02T11:06:39.320Z,2.20
2023-01-02T11:07:35.150Z,2.60
2023-01-02T11:08:34.132Z,2.00
2023-01-02T11:09:34.127Z,2.10
2023-01-02T11:10:34.142Z,2.30
2023-01-02T11:11:34.109Z,2.10
2023-01-02T11:12:34.097Z,1.90
2023-01-02T11:13:34.082Z,2.20
2023-01-02T11:14:34.074Z,2.20
2023-01-02T11:15:34.082Z,2.10
2023-01-02T11:16:34.095Z,2.20
2023-01-02T11:17:34.039Z,2.40
2023-01-02T11:18:34.034Z,2.10
2023-01-02T11:19:34.020Z,2.40
2023-01-02T11:20:34.028Z,2.20
2023-01-02T11:21:34.002Z,2.40
2023-01-02T11:22:34.005Z,2.40
2023-01-02T11:23:33.983Z,2.50
2023-01-02T11:24:33.965Z,2.10
2023-01-02T11:25:33.995Z,2.10
2023-01-02T11:26:33.941Z,2.10
2023-01-02T11:27:33.952Z,2.10
2023-01-02T11:28:33.922Z,2.30
2023-01-02T11:29:33.917Z,1.90
2023-01-02T11:30:33.905Z,1.80
2023-01-02T11:31:33.954Z,2.40
2023-01-02T11:32:33.875Z,1.90
2023-01-02T11:33:33.862Z,1.70
2023-01-02T11:34:33.868Z,2.20
2023-01-02T11:35:33.862Z,1.80
2023-01-02T11:36:33.832Z,1.90
2023-01-02T11:37:33.823Z,2.20
2023-01-02T11:38:33.812Z,2.30
2023-01-02T11:39:33.822Z,1.80
2023-01-02T11:40:33.818Z,1.90
2023-01-02T11:41:33.780Z,1.90
2023-01-02T11:42:33.762Z,2.30
2023-01-02T11:43:33.762Z,2.40
2023-01-02T11:44:33.753Z,2.10
2023-01-02T11:45:33.819Z,2.10
2023-01-02T11:46:33.733Z,2.20
2023-01-02T11:47:33.722Z,2.00
2023-01-02T11:48:33.709Z,1.80
2023-01-02T11:49:33.682Z,2.50
2023-01-02T11:50:33.727Z,1.80
2023-01-02T11:51:33.678Z,2.10
2023-01-02T11:52:33.674Z,2.20
2023-01-02T11:53:33.676Z,1.90
2023-01-02T11:54:33.644Z,1.90
2023-01-02T11:55:33.798Z,2.10
2023-01-02T11:56:33.619Z,2.30
2023-01-02T11:57:33.637Z,2.20
2023-01-02T11:58:33.615Z,2.10
2023-01-02T11:59:33.591Z,2.30
2023-01-02T12:00:33.580Z,2.10
2023-01-02T12:01:33.582Z,2.00
2023-01-02T12:02:33.584Z,1.90
2023-01-02T12:03:33.576Z,1.80
2023-01-02T12:04:33.534Z,2.00
2023-01-02T12:05:33.530Z,2.10
2023-01-02T12:06:33.514Z,2.30
2023-01-02T12:07:33.522Z,2.20
2023-01-02T12:08:39.945Z,2.10
2023-01-02T12:09:34.497Z,2.30
2023-01-02T12:10:33.497Z,2.10
2023-01-02T12:11:33.497Z,2.00
2023-01-02T12:12:33.457Z,2.30
2023-01-02T12:13:33.457Z,2.10
2023-01-02T12:14:33.464Z,2.40
2023-01-02T12:15:33.462Z,2.30
2023-01-02T12:16:33.495Z,2.10
2023-01-02T12:17:33.414Z,2.30
2023-01-02T12:18:33.393Z,2.20
2023-01-02T12:19:33.382Z,1.90
2023-01-02T12:20:33.355Z,2.30
2023-01-02T12:21:33.361Z,2.40
2023-01-02T12:22:33.340Z,2.20
2023-01-02T12:23:33.321Z,2.30
2023-01-02T12:24:33.330Z,2.70
2023-01-02T12:25:33.302Z,2.60
2023-01-02T12:26:33.303Z,3.00
2023-01-02T12:27:33.286Z,2.60
2023-01-02T12:28:33.290Z,2.50
2023-01-02T12:29:46.889Z,2.50
2023-01-02T12:30:34.263Z,3.00
2023-01-02T12:31:33.344Z,2.60
2023-01-02T12:32:33.233Z,2.50
2023-01-02T12:33:33.215Z,3.00
2023-01-02T12:34:33.218Z,2.60
2023-01-02T12:35:33.182Z,2.70
2023-01-02T12:36:33.206Z,2.40
2023-01-02T12:37:33.172Z,2.80
2023-01-02T12:38:33.716Z,2.70
2023-01-02T12:39:33.169Z,2.00
2023-01-02T12:40:33.145Z,2.30
2023-01-02T12:41:33.139Z,2.50
2023-01-02T12:42:33.108Z,2.40
2023-01-02T12:43:33.135Z,2.30
2023-01-02T12:44:33.905Z,2.20
2023-01-02T12:45:33.098Z,1.80
2023-01-02T12:46:33.075Z,2.60
2023-01-02T12:47:33.077Z,2.30
2023-01-02T12:48:33.082Z,2.30
2023-01-02T12:49:33.029Z,2.40
2023-01-02T12:50:33.085Z,2.50
2023-01-02T12:51:33.034Z,2.60
2023-01-02T12:52:33.021Z,2.80
2023-01-02T12:53:33.080Z,2.40
2023-01-02T12:54:33.039Z,2.40
2023-01-02T12:55:33.013Z,2.70
2023-01-02T12:56:32.984Z,2.30
2023-01-02T12:57:32.999Z,2.10
2023-01-02T12:58:32.967Z,2.30
2023-01-02T12:59:32.936Z,2.00
2023-01-02T13:00:32.985Z,2.20
2023-01-02T13:01:32.972Z,1.90
2023-01-02T13:02:33.048Z,2.00
2023-01-02T13:03:32.988Z,2.40
2023-01-02T13:04:32.912Z,2.20
2023-01-02T13:05:32.872Z,2.20
2023-01-02T13:06:45.850Z,2.30
2023-01-02T13:07:33.848Z,2.40
2023-01-02T13:08:33.816Z,2.10
2023-01-02T13:09:32.848Z,1.70
2023-01-02T13:10:32.880Z,2.50
2023-01-02T13:11:32.808Z,1.90
2023-01-02T13:12:32.802Z,2.40
2023-01-02T13:13:32.795Z,2.20
2023-01-02T13:14:32.778Z,2.00
2023-01-02T13:15:32.786Z,2.30
2023-01-02T13:16:32.804Z,2.40
2023-01-02T13:17:32.738Z,2.20
2023-01-02T13:18:32.728Z,2.70